Time;durP1;ratioP1;P1;durP2;ratioP2;P2;SDS_P1;SDS_P2;PMS_P1;PMS_P2;Temp;Humidity;BMP_temperature;BMP_pressure;BME280_temperature;BME280_humidity;BME280_pressure;Samples;Min_cycle;Max_cycle;Signal;HPM_P1;HPM_P2
2023/01/30 00:00:56;;;;;;;27.50;17.30;;;;;;;2.63;90.84;100070.72;5025696;28;20159;-86
2023/01/30 00:03:23;;;;;;;30.30;17.40;;;;;;;2.77;91.38;100063.47;5026146;28;20036;-86
2023/01/30 00:05:48;;;;;;;32.92;19.20;;;;;;;2.88;90.31;100045.06;5025647;28;20050;-88
2023/01/30 00:08:14;;;;;;;34.20;17.77;;;;;;;2.86;90.11;100050.66;5025225;28;20041;-87
2023/01/30 00:10:39;;;;;;;35.13;18.80;;;;;;;3.02;90.29;100059.34;5026453;28;20045;-89
2023/01/30 00:13:05;;;;;;;32.85;20.55;;;;;;;2.96;90.08;100070.97;5027056;28;20030;-86
2023/01/30 00:15:30;;;;;;;29.35;18.40;;;;;;;2.95;90.42;100072.00;5026341;28;20037;-87
2023/01/30 00:17:55;;;;;;;30.25;20.75;;;;;;;3.04;90.64;100084.22;5026478;28;20083;-87
2023/01/30 00:20:20;;;;;;;34.63;18.92;;;;;;;3.06;91.56;100076.78;5029224;28;20052;-88
2023/01/30 00:22:46;;;;;;;31.50;19.00;;;;;;;3.04;90.58;100065.38;5046674;28;20049;-84
2023/01/30 00:25:11;;;;;;;29.07;16.07;;;;;;;3.07;91.50;100064.94;5045929;28;20075;-88
2023/01/30 00:27:36;;;;;;;29.73;17.60;;;;;;;3.07;91.41;100061.44;5046010;28;20266;-87
2023/01/30 00:30:04;;;;;;;35.47;19.77;;;;;;;2.89;92.23;100057.47;5046979;28;20294;-87
2023/01/30 00:32:30;;;;;;;32.53;18.80;;;;;;;3.07;92.11;100072.22;5028937;28;20254;-87
2023/01/30 00:34:55;;;;;;;32.67;18.95;;;;;;;3.12;91.73;100058.94;5046064;28;20048;-86
2023/01/30 00:37:20;;;;;;;28.60;17.67;;;;;;;3.07;91.22;100056.84;5044753;28;20040;-87
2023/01/30 00:39:45;;;;;;;33.57;18.67;;;;;;;3.18;91.10;100035.72;5045851;28;20266;-88
2023/01/30 00:47:40;;;;;;;28.25;17.52;;;;;;;3.16;91.61;100027.84;5046772;28;20143;-89
2023/01/30 00:50:05;;;;;;;29.38;18.42;;;;;;;3.30;91.18;100023.25;5044932;28;20505;-87
2023/01/30 00:52:31;;;;;;;35.15;18.80;;;;;;;3.22;91.54;99993.84;5045221;28;20025;-88
2023/01/30 00:54:56;;;;;;;27.88;15.88;;;;;;;3.31;90.78;100000.69;5045308;28;20041;-87
2023/01/30 00:57:21;;;;;;;31.55;15.98;;;;;;;3.11;91.70;100011.50;5026730;28;20028;-84
2023/01/30 00:59:46;;;;;;;29.43;18.10;;;;;;;3.12;92.71;100005.03;5045117;28;20413;-86
2023/01/30 01:02:12;;;;;;;35.37;20.10;;;;;;;3.33;92.05;100008.53;5045105;28;20388;-88
2023/01/30 01:04:42;;;;;;;30.50;17.63;;;;;;;3.04;92.20;99987.25;5045211;28;20261;-88
2023/01/30 01:07:08;;;;;;;31.35;19.10;;;;;;;3.08;93.15;99999.25;5044903;28;20097;-81
2023/01/30 01:09:34;;;;;;;30.60;18.35;;;;;;;3.25;92.68;99990.75;5044309;28;20044;-88
2023/01/30 01:11:59;;;;;;;33.80;19.55;;;;;;;3.31;92.70;99983.66;5044626;28;20037;-84
2023/01/30 01:14:24;;;;;;;32.77;19.83;;;;;;;3.25;92.09;99993.44;5044486;28;20040;-90
2023/01/30 01:16:49;;;;;;;34.90;18.10;;;;;;;3.25;92.69;99972.69;5044923;28;20254;-86
2023/01/30 01:19:15;;;;;;;31.47;20.00;;;;;;;3.27;92.05;99961.72;5044512;28;20071;-90
2023/01/30 01:21:40;;;;;;;34.90;18.48;;;;;;;3.23;92.93;99955.09;5044733;28;20785;-86
2023/01/30 01:24:06;;;;;;;32.53;18.38;;;;;;;3.32;92.92;99940.31;5045409;28;20040;-86
2023/01/30 01:26:32;;;;;;;37.88;19.42;;;;;;;3.31;92.96;99944.06;5045189;28;20237;-87
2023/01/30 01:28:58;;;;;;;33.00;19.83;;;;;;;3.38;92.83;99961.03;5044658;28;20044;-88
2023/01/30 01:31:24;;;;;;;32.88;19.13;;;;;;;3.47;92.73;99952.72;5044524;28;20033;-89
2023/01/30 01:33:50;;;;;;;32.33;17.92;;;;;;;3.44;92.07;99963.94;5044874;28;20079;-87
2023/01/30 01:36:15;;;;;;;25.88;17.35;;;;;;;3.45;92.63;99961.03;5044545;28;20032;-89
2023/01/30 01:38:42;;;;;;;33.40;17.52;;;;;;;3.35;93.21;99963.34;5044316;28;20043;-84
2023/01/30 01:41:09;;;;;;;32.97;17.70;;;;;;;3.35;93.81;99961.47;5043739;28;20025;-88
2023/01/30 01:43:37;;;;;;;30.58;15.20;;;;;;;3.35;94.44;99949.88;5044678;28;20036;-87
2023/01/30 01:46:07;;;;;;;25.33;15.23;;;;;;;3.51;93.76;99940.47;5044903;28;20382;-88
2023/01/30 01:48:47;;;;;;;31.50;16.33;;;;;;;3.32;94.27;99948.41;5044078;28;20049;-90
2023/01/30 01:51:33;;;;;;;27.52;15.13;;;;;;;3.36;94.74;99938.88;5044711;28;20323;-86
2023/01/30 01:54:07;;;;;;;26.20;16.52;;;;;;;3.45;94.41;99933.25;5045041;28;20071;-89
2023/01/30 01:56:34;;;;;;;;;;;;;;;3.33;95.45;99928.53;5044822;28;20032;-87
2023/01/30 01:59:20;;;;;;;24.98;14.88;;;;;;;3.43;95.49;99919.16;5044255;28;19916;-87
2023/01/30 02:01:47;;;;;;;30.23;17.92;;;;;;;3.52;95.19;99934.03;5044216;28;20087;-90
2023/01/30 02:05:00;;;;;;;27.40;16.42;;;;;;;3.46;95.41;99926.78;5044460;28;20032;-86
2023/01/30 02:06:58;;;;;;;29.73;16.55;;;;;;;3.46;95.88;99914.16;5044540;28;20057;-88
2023/01/30 02:09:24;;;;;;;34.33;18.40;;;;;;;3.45;96.31;99908.97;5043806;28;20036;-86
2023/01/30 02:11:54;;;;;;;32.83;16.77;;;;;;;3.30;96.46;99917.31;5044418;28;20533;-86
2023/01/30 02:14:20;;;;;;;27.98;16.88;;;;;;;3.33;97.58;99898.88;5044080;28;20127;-86
2023/01/30 02:16:46;;;;;;;31.85;17.77;;;;;;;3.43;97.25;99892.19;5044110;28;20116;-89
2023/01/30 02:19:31;;;;;;;29.75;17.70;;;;;;;3.52;96.90;99901.69;5043785;28;20489;-88
2023/01/30 02:22:13;;;;;;;33.17;16.92;;;;;;;3.55;96.46;99874.31;5044327;28;20057;-88
2023/01/30 02:25:04;;;;;;;30.73;16.42;;;;;;;3.56;96.57;99873.25;5044376;28;20032;-87
2023/01/30 02:28:05;;;;;;;26.95;16.00;;;;;;;3.52;96.79;99855.84;5043545;28;20033;-90
2023/01/30 02:30:55;;;;;;;25.52;16.50;;;;;;;3.53;97.15;99848.59;5044356;28;20394;-91
2023/01/30 02:33:47;;;;;;;31.80;19.00;;;;;;;3.45;97.55;99846.97;5043834;28;20041;-88
2023/01/30 02:36:45;;;;;;;30.17;20.55;;;;;;;3.47;97.35;99855.69;5043956;28;20025;-90
2023/01/30 02:39:41;;;;;;;29.15;16.20;;;;;;;3.56;97.30;99848.19;5009132;28;20041;-90
2023/01/30 02:42:23;;;;;;;29.65;18.98;;;;;;;3.53;97.60;99827.84;5043781;28;20120;-88
2023/01/30 02:44:57;;;;;;;31.00;15.05;;;;;;;3.52;98.04;99842.38;5044009;28;20462;-87
2023/01/30 02:47:30;;;;;;;39.50;20.75;;;;;;;3.49;98.10;99837.41;5043299;28;20037;-90
2023/01/30 02:50:14;;;;;;;30.42;18.92;;;;;;;3.53;98.02;99837.81;5043938;28;20048;-86
2023/01/30 02:52:41;;;;;;;36.30;21.10;;;;;;;3.50;98.13;99839.06;5043475;28;20065;-88
2023/01/30 02:55:21;;;;;;;33.55;18.75;;;;;;;3.56;98.10;99846.28;5043834;28;20043;-86
2023/01/30 02:57:46;;;;;;;34.42;18.23;;;;;;;3.48;98.24;99850.06;5043889;28;20029;-90
2023/01/30 03:00:15;;;;;;;31.58;17.33;;;;;;;3.55;98.21;99841.94;5043652;28;20039;-85
2023/01/30 03:03:06;;;;;;;32.17;19.80;;;;;;;3.73;98.07;99843.91;5043743;28;20532;-87
2023/01/30 03:06:10;;;;;;;28.42;17.95;;;;;;;3.76;97.08;99829.19;5026864;28;20192;-88
2023/01/30 03:09:05;;;;;;;32.92;18.83;;;;;;;3.69;97.65;99825.69;5011945;28;20554;-88
2023/01/30 03:11:46;;;;;;;34.22;19.65;;;;;;;3.78;97.25;99845.97;5043669;28;20041;-89
2023/01/30 03:14:26;;;;;;;28.05;17.75;;;;;;;3.62;97.72;99821.16;5043416;28;20491;-87
2023/01/30 03:16:54;;;;;;;43.35;21.50;;;;;;;3.67;98.34;99833.16;5043246;28;20037;-86
2023/01/30 03:19:19;;;;;;;27.45;18.50;;;;;;;3.84;97.66;99826.19;5025252;28;20032;-87
2023/01/30 03:21:45;;;;;;;28.73;16.98;;;;;;;3.79;97.58;99825.19;5043088;28;20049;-86
2023/01/30 03:24:13;;;;;;;32.03;17.27;;;;;;;3.76;97.50;99810.28;5043196;28;20506;-87
2023/01/30 03:26:51;;;;;;;27.35;14.82;;;;;;;3.88;97.85;99804.19;5043131;28;20333;-85
2023/01/30 03:29:16;;;;;;;34.70;15.70;;;;;;;3.89;97.44;99805.81;5042973;28;20033;-89
2023/01/30 03:31:41;;;;;;;31.05;18.88;;;;;;;3.91;97.88;99795.66;5043665;28;20021;-88
2023/01/30 03:34:06;;;;;;;28.63;18.13;;;;;;;3.90;97.59;99788.63;5043480;28;20059;-87
2023/01/30 03:36:32;;;;;;;33.33;16.77;;;;;;;3.92;97.21;99790.06;5043385;28;20029;-86
2023/01/30 03:38:57;;;;;;;31.20;19.83;;;;;;;3.83;98.18;99778.69;5043243;28;20037;-88
2023/01/30 03:41:22;;;;;;;30.92;17.88;;;;;;;3.83;98.46;99778.69;5042779;28;20060;-86
2023/01/30 03:43:48;;;;;;;26.88;16.30;;;;;;;3.89;98.96;99776.97;5043225;28;20048;-87
2023/01/30 03:46:13;;;;;;;32.00;16.90;;;;;;;3.87;99.24;99772.84;5043221;28;20040;-85
2023/01/30 03:48:38;;;;;;;27.77;15.83;;;;;;;3.94;98.62;99750.19;5042754;28;20777;-88
2023/01/30 03:51:04;;;;;;;30.93;17.67;;;;;;;3.89;99.73;99755.41;5042970;28;20258;-87
2023/01/30 03:53:29;;;;;;;31.10;17.52;;;;;;;3.90;99.35;99746.28;5043125;28;20265;-86
2023/01/30 03:55:54;;;;;;;36.33;15.47;;;;;;;3.88;99.83;99736.75;5043632;28;20033;-87
2023/01/30 03:58:19;;;;;;;27.87;16.57;;;;;;;3.92;99.95;99740.66;5042657;28;20270;-87
2023/01/30 04:00:45;;;;;;;30.08;17.42;;;;;;;4.05;99.38;99759.41;5042846;28;20395;-87
2023/01/30 04:03:10;;;;;;;28.27;16.63;;;;;;;4.10;99.05;99756.06;5044630;28;20504;-87
2023/01/30 04:05:35;;;;;;;27.13;15.40;;;;;;;4.16;98.62;99751.66;5046877;28;20466;-89
2023/01/30 04:08:00;;;;;;;27.23;15.50;;;;;;;4.02;98.48;99751.78;5046713;28;20250;-87
2023/01/30 04:10:26;;;;;;;33.67;15.45;;;;;;;3.94;99.45;99746.66;5045883;28;20768;-88
2023/01/30 04:12:51;;;;;;;30.85;17.70;;;;;;;3.97;100.00;99738.94;5046851;28;20501;-86
2023/01/30 04:15:17;;;;;;;29.38;19.33;;;;;;;4.02;100.00;99732.91;5046587;28;20116;-86
2023/01/30 04:17:43;;;;;;;21.58;13.77;;;;;;;4.04;100.00;99736.19;5046360;28;20029;-84
2023/01/30 04:20:09;;;;;;;31.83;18.05;;;;;;;4.00;100.00;99739.56;5046720;28;20033;-86
2023/01/30 04:22:34;;;;;;;33.67;15.27;;;;;;;4.16;100.00;99738.16;5028577;28;20044;-88
2023/01/30 04:24:59;;;;;;;27.40;15.43;;;;;;;4.07;99.92;99734.91;5046377;28;20036;-87
2023/01/30 04:27:25;;;;;;;24.48;17.27;;;;;;;4.09;100.00;99738.22;5045914;28;20071;-89
2023/01/30 04:29:50;;;;;;;25.63;17.07;;;;;;;4.09;100.00;99732.81;5046158;28;20392;-86
2023/01/30 04:32:15;;;;;;;27.95;15.80;;;;;;;4.20;100.00;99744.75;5046160;28;20262;-88
2023/01/30 04:34:42;;;;;;;25.13;14.60;;;;;;;4.18;100.00;99736.06;5046497;28;20572;-86
2023/01/30 04:37:08;;;;;;;22.52;13.73;;;;;;;4.16;100.00;99721.97;5046415;28;20056;-88
2023/01/30 04:39:33;;;;;;;24.35;15.73;;;;;;;4.23;99.98;99725.41;5045415;28;20061;-89
2023/01/30 04:41:58;;;;;;;27.30;15.30;;;;;;;4.24;100.00;99729.78;5046081;28;20590;-85
2023/01/30 04:44:23;;;;;;;24.30;15.00;;;;;;;4.08;100.00;99737.41;5028300;28;20352;-87
2023/01/30 04:46:48;;;;;;;25.10;13.63;;;;;;;4.03;100.00;99733.69;5028211;28;20266;-89
2023/01/30 04:49:14;;;;;;;21.08;13.57;;;;;;;4.18;100.00;99736.06;5045409;28;20253;-89
2023/01/30 04:51:39;;;;;;;24.85;13.70;;;;;;;4.31;100.00;99735.91;5045971;28;20037;-88
2023/01/30 04:54:05;;;;;;;19.90;12.38;;;;;;;4.38;100.00;99721.53;5045979;28;20043;-88
2023/01/30 04:56:30;;;;;;;24.20;14.15;;;;;;;4.26;100.00;99738.47;5045469;28;20061;-87
2023/01/30 04:58:56;;;;;;;20.30;12.38;;;;;;;4.32;100.00;99724.09;5045425;28;20159;-88
2023/01/30 05:01:24;;;;;;;19.60;11.67;;;;;;;4.16;100.00;99738.16;5045407;28;20037;-87
2023/01/30 05:03:53;;;;;;;20.45;10.60;;;;;;;4.12;100.00;99720.75;5045719;28;20298;-89
2023/01/30 05:06:19;;;;;;;18.85;10.80;;;;;;;4.21;100.00;99708.59;5045945;28;20082;-86
2023/01/30 05:08:52;;;;;;;20.13;9.10;;;;;;;4.27;100.00;99707.72;5045237;28;20056;-86
2023/01/30 05:11:18;;;;;;;19.27;11.15;;;;;;;4.11;100.00;99711.03;5045534;28;20071;-88
2023/01/30 05:13:44;;;;;;;16.67;9.10;;;;;;;4.14;100.00;99715.97;5045301;28;20493;-87
2023/01/30 05:16:11;;;;;;;18.08;10.30;;;;;;;4.21;100.00;99714.00;5045498;28;20056;-87
2023/01/30 05:18:36;;;;;;;20.23;12.15;;;;;;;4.25;100.00;99709.81;5044832;28;20065;-87
2023/01/30 05:21:09;;;;;;;18.00;9.55;;;;;;;4.32;100.00;99680.88;5045235;28;20072;-87
2023/01/30 05:23:35;;;;;;;19.27;11.00;;;;;;;4.40;100.00;99705.94;5045258;28;20182;-87
2023/01/30 05:26:01;;;;;;;18.15;8.15;;;;;;;4.40;100.00;99714.03;5044932;28;20167;-85
2023/01/30 05:28:27;;;;;;;16.42;9.05;;;;;;;4.37;100.00;99719.88;5044989;28;20488;-87
2023/01/30 05:30:53;;;;;;;16.70;7.93;;;;;;;4.51;100.00;99696.25;5045684;28;20033;-88
2023/01/30 05:33:18;;;;;;;18.05;9.52;;;;;;;4.40;100.00;99695.13;5044883;28;20355;-86
2023/01/30 05:35:47;;;;;;;15.80;8.70;;;;;;;4.35;100.00;99703.09;5045031;28;20039;-85
2023/01/30 05:38:13;;;;;;;13.57;7.95;;;;;;;4.37;100.00;99690.19;5044454;28;20037;-89
2023/01/30 05:40:38;;;;;;;14.65;8.60;;;;;;;4.39;100.00;99686.22;5044557;28;20033;-86
2023/01/30 05:43:04;;;;;;;18.17;9.20;;;;;;;4.40;100.00;99682.47;5044302;28;20458;-88
2023/01/30 05:45:29;;;;;;;14.07;8.53;;;;;;;4.52;100.00;99692.50;5044749;28;20033;-85
2023/01/30 05:47:54;;;;;;;20.53;10.43;;;;;;;4.44;100.00;99696.31;5044688;28;20272;-85
2023/01/30 05:50:20;;;;;;;19.57;9.43;;;;;;;4.40;100.00;99673.53;5044652;28;20739;-89
2023/01/30 05:52:45;;;;;;;16.15;8.45;;;;;;;4.34;100.00;99696.84;5044881;28;20280;-88
2023/01/30 05:55:10;;;;;;;18.58;9.20;;;;;;;4.44;100.00;99682.81;5045081;28;20301;-86
2023/01/30 05:57:35;;;;;;;19.23;9.30;;;;;;;4.43;100.00;99694.69;5044185;28;20029;-88
2023/01/30 06:00:01;;;;;;;19.67;10.40;;;;;;;4.46;100.00;99688.00;5044565;28;20340;-88
2023/01/30 06:02:26;;;;;;;21.73;10.63;;;;;;;4.53;100.00;99688.75;5044359;28;20292;-88
2023/01/30 06:04:51;;;;;;;19.87;9.57;;;;;;;4.49;100.00;99693.78;5044645;28;20072;-87
2023/01/30 06:07:16;;;;;;;20.40;11.00;;;;;;;4.44;100.00;99690.94;5043939;28;20265;-88
2023/01/30 06:09:42;;;;;;;19.20;10.18;;;;;;;4.63;100.00;99704.41;5044350;28;20517;-90
2023/01/30 06:12:07;;;;;;;18.23;9.47;;;;;;;4.55;100.00;99717.19;5043994;28;20052;-86
2023/01/30 06:14:32;;;;;;;18.83;10.52;;;;;;;4.62;100.00;99724.38;5044204;28;20876;-87
2023/01/30 06:16:58;;;;;;;20.88;11.93;;;;;;;4.59;100.00;99719.44;5044530;28;20029;-87
2023/01/30 06:19:23;;;;;;;20.23;10.10;;;;;;;4.71;100.00;99724.88;5043854;28;20044;-86
2023/01/30 06:21:48;;;;;;;25.30;12.13;;;;;;;4.59;100.00;99719.44;5043982;28;20744;-86
2023/01/30 06:24:13;;;;;;;27.30;13.07;;;;;;;4.62;100.00;99718.97;5044440;28;20330;-86
2023/01/30 06:26:39;;;;;;;23.05;10.85;;;;;;;4.62;100.00;99716.25;5043680;28;20254;-87
2023/01/30 06:29:04;;;;;;;22.53;10.50;;;;;;;4.60;100.00;99723.75;5043769;28;20037;-87
2023/01/30 06:31:29;;;;;;;20.35;10.90;;;;;;;4.62;100.00;99705.47;5043820;28;20816;-86
2023/01/30 06:33:54;;;;;;;23.80;12.27;;;;;;;4.65;100.00;99713.13;5044099;28;20037;-88
2023/01/30 06:36:20;;;;;;;18.60;12.53;;;;;;;4.66;100.00;99721.00;5043843;28;20260;-87
2023/01/30 06:38:45;;;;;;;26.90;13.85;;;;;;;4.64;100.00;99727.66;5043540;28;20301;-89
2023/01/30 06:41:10;;;;;;;22.00;11.30;;;;;;;4.73;100.00;99725.50;5043530;28;20028;-86
2023/01/30 06:43:36;;;;;;;25.30;15.13;;;;;;;4.68;100.00;99720.75;5044088;28;20531;-86
2023/01/30 06:46:01;;;;;;;18.65;12.07;;;;;;;4.74;100.00;99738.75;5043843;28;20045;-88
2023/01/30 06:48:26;;;;;;;24.63;12.53;;;;;;;4.91;100.00;99754.34;5042820;28;20048;-90
2023/01/30 06:50:52;;;;;;;18.65;12.43;;;;;;;4.95;100.00;99752.03;5043674;28;20266;-85
2023/01/30 06:53:18;;;;;;;23.13;12.93;;;;;;;4.93;100.00;99752.25;5043895;28;20456;-88
2023/01/30 06:55:43;;;;;;;28.92;14.15;;;;;;;4.99;100.00;99748.66;5033962;28;20041;-89
2023/01/30 06:58:11;;;;;;;32.37;16.00;;;;;;;4.98;100.00;99752.38;5042975;28;20049;-85
2023/01/30 07:00:38;;;;;;;33.83;17.45;;;;;;;4.79;100.00;99740.78;5043322;28;20258;-87
2023/01/30 07:03:04;;;;;;;23.38;13.45;;;;;;;4.87;100.00;99731.56;5043569;28;20040;-89
2023/01/30 07:05:30;;;;;;;25.60;15.65;;;;;;;4.78;100.00;99739.97;5043655;28;20029;-89
2023/01/30 07:07:55;;;;;;;27.70;13.30;;;;;;;4.82;100.00;99731.41;5043091;28;20032;-87
2023/01/30 07:10:21;;;;;;;24.10;13.55;;;;;;;4.84;100.00;99740.13;5043820;28;20733;-86
2023/01/30 07:12:46;;;;;;;23.15;12.73;;;;;;;4.87;100.00;99742.34;5043596;28;20039;-89
2023/01/30 07:15:12;;;;;;;24.67;15.00;;;;;;;4.98;100.00;99738.88;5043270;28;20029;-88
2023/01/30 07:17:39;;;;;;;19.33;12.35;;;;;;;4.99;100.00;99724.31;5025361;28;20029;-86
2023/01/30 07:20:05;;;;;;;20.98;12.30;;;;;;;5.00;100.00;99715.16;5043104;28;20124;-88
2023/01/30 07:22:30;;;;;;;25.70;14.02;;;;;;;5.10;100.00;99722.75;5043345;28;20111;-86
2023/01/30 07:24:56;;;;;;;25.03;12.60;;;;;;;5.12;100.00;99717.09;5043137;28;20119;-89
2023/01/30 07:27:21;;;;;;;25.43;13.97;;;;;;;5.10;100.00;99730.84;5043179;28;20246;-86
2023/01/30 07:29:46;;;;;;;28.10;11.45;;;;;;;5.00;100.00;99738.66;5043568;28;20282;-85
2023/01/30 07:32:18;;;;;;;23.73;12.87;;;;;;;4.99;100.00;99724.31;5043803;28;20489;-86
2023/01/30 07:34:44;;;;;;;25.00;10.93;;;;;;;5.01;100.00;99733.03;5043570;28;20301;-86
2023/01/30 07:37:09;;;;;;;24.45;12.65;;;;;;;5.04;100.00;99741.72;5044677;28;20540;-88
2023/01/30 07:39:35;;;;;;;30.30;13.73;;;;;;;5.03;100.00;99746.31;5046713;28;20037;-88
2023/01/30 07:42:00;;;;;;;23.55;10.82;;;;;;;5.08;100.00;99742.94;5047364;28;20370;-88
2023/01/30 07:44:26;;;;;;;31.50;12.68;;;;;;;5.14;100.00;99747.41;5046730;28;20039;-89
2023/01/30 07:46:51;;;;;;;22.47;11.53;;;;;;;5.07;100.00;99760.19;5046676;28;20075;-90
2023/01/30 07:49:16;;;;;;;26.10;11.07;;;;;;;5.09;100.00;99752.66;5046313;28;20281;-88
2023/01/30 07:51:41;;;;;;;35.28;11.05;;;;;;;5.11;100.00;99764.09;5047138;28;20273;-87
2023/01/30 07:54:07;;;;;;;16.67;8.93;;;;;;;5.18;100.00;99758.59;5047660;28;20044;-88
2023/01/30 07:56:32;;;;;;;20.48;10.38;;;;;;;5.21;100.00;99760.81;5047931;28;20253;-87
2023/01/30 07:58:57;;;;;;;24.02;7.65;;;;;;;5.25;100.00;99770.97;5047013;28;20033;-89
2023/01/30 08:01:22;;;;;;;15.07;6.73;;;;;;;5.14;100.00;99785.25;5045725;28;20265;-82
2023/01/30 08:03:48;;;;;;;16.92;8.02;;;;;;;5.30;100.00;99785.69;5046400;28;20284;-82
2023/01/30 08:06:16;;;;;;;16.27;8.32;;;;;;;5.41;99.80;99779.47;5046424;28;20467;-81
2023/01/30 08:08:42;;;;;;;15.73;6.60;;;;;;;5.34;98.23;99778.75;5046048;28;20044;-82
2023/01/30 08:11:07;;;;;;;21.65;8.85;;;;;;;5.37;97.90;99784.53;5045975;28;20589;-84
2023/01/30 08:13:33;;;;;;;26.90;8.85;;;;;;;5.32;98.40;99783.56;5046500;28;20037;-86
2023/01/30 08:16:03;;;;;;;14.98;7.07;;;;;;;5.23;98.59;99789.28;5046526;28;20171;-82
2023/01/30 08:18:29;;;;;;;16.73;6.85;;;;;;;5.25;98.81;99780.94;5045600;28;20066;-83
2023/01/30 08:20:59;;;;;;;27.35;9.80;;;;;;;5.28;98.08;99777.78;5044099;28;20052;-85
2023/01/30 08:23:24;;;;;;;17.30;7.22;;;;;;;5.34;98.03;99781.47;5045291;28;20063;-87
2023/01/30 08:25:54;;;;;;;17.98;6.95;;;;;;;5.31;97.82;99784.63;5045560;28;20037;-84
2023/01/30 08:28:19;;;;;;;16.58;7.60;;;;;;;5.34;98.35;99784.16;5044970;28;20045;-87
2023/01/30 08:30:44;;;;;;;17.83;7.10;;;;;;;5.37;97.37;99786.38;5045361;28;20043;-86
2023/01/30 08:33:10;;;;;;;20.17;6.20;;;;;;;5.49;96.93;99792.66;5046234;28;20769;-85
2023/01/30 08:35:35;;;;;;;13.48;5.60;;;;;;;5.61;96.20;99779.19;5046019;28;20036;-87
2023/01/30 08:38:02;;;;;;;11.98;5.10;;;;;;;5.54;95.86;99789.28;5045303;28;20032;-84
2023/01/30 08:40:27;;;;;;;15.48;5.10;;;;;;;5.55;96.07;99801.75;5027384;28;20033;-84
2023/01/30 08:42:52;;;;;;;14.70;6.00;;;;;;;5.67;95.53;99798.25;5045252;28;20090;-85
2023/01/30 08:45:18;;;;;;;19.65;6.55;;;;;;;5.58;95.40;99800.47;5046015;28;20028;-88
2023/01/30 08:47:43;;;;;;;11.15;5.30;;;;;;;5.59;94.92;99797.53;5045282;28;20034;-89
2023/01/30 08:50:09;;;;;;;11.48;5.32;;;;;;;5.55;94.54;99803.63;5045239;28;20037;-85
2023/01/30 08:52:34;;;;;;;18.75;5.45;;;;;;;5.56;94.91;99805.28;5044126;28;20441;-89
2023/01/30 08:54:59;;;;;;;12.03;4.57;;;;;;;5.42;94.89;99797.38;5044952;28;20032;-87
2023/01/30 08:57:24;;;;;;;17.00;5.40;;;;;;;5.47;95.18;99799.38;5043999;28;20277;-87
2023/01/30 08:59:50;;;;;;;16.17;5.07;;;;;;;5.59;94.57;99802.13;5044944;28;20412;-88
2023/01/30 09:02:15;;;;;;;9.70;4.35;;;;;;;5.54;92.54;99826.31;5044258;28;20037;-87
2023/01/30 09:04:41;;;;;;;14.98;5.93;;;;;;;5.57;91.57;99810.44;5045607;28;20391;-86
2023/01/30 09:07:06;;;;;;;13.57;7.18;;;;;;;5.58;92.29;99814.00;5044691;28;20033;-86
2023/01/30 09:09:31;;;;;;;14.70;5.00;;;;;;;5.58;91.46;99805.88;5044597;28;20071;-86
2023/01/30 09:11:57;;;;;;;18.08;5.47;;;;;;;5.45;91.43;99798.78;5044731;28;20267;-88
2023/01/30 09:14:22;;;;;;;18.30;6.13;;;;;;;5.64;90.84;99798.72;5044354;28;20029;-87
2023/01/30 09:16:54;;;;;;;10.45;5.05;;;;;;;5.59;89.75;99807.53;5044517;28;20264;-88
2023/01/30 09:19:21;;;;;;;20.13;6.18;;;;;;;5.56;90.10;99818.81;5044796;28;20041;-86
2023/01/30 09:21:48;;;;;;;11.90;3.28;;;;;;;5.57;89.47;99815.06;5044255;28;20519;-89
2023/01/30 09:24:14;;;;;;;17.13;6.20;;;;;;;5.54;88.83;99821.75;5044401;28;20047;-88
2023/01/30 09:26:43;;;;;;;7.80;4.03;;;;;;;5.59;88.44;99829.19;5044935;28;20474;-87
2023/01/30 09:29:08;;;;;;;12.13;4.55;;;;;;;5.55;86.38;99831.50;5044341;28;20340;-86
2023/01/30 09:31:34;;;;;;;10.88;4.03;;;;;;;5.56;86.14;99825.03;5044264;28;20120;-86
2023/01/30 09:33:59;;;;;;;20.80;5.93;;;;;;;5.65;85.16;99827.44;5044804;28;20041;-88
2023/01/30 09:36:24;;;;;;;18.00;6.20;;;;;;;5.60;85.05;99820.00;5043819;28;20266;-88
2023/01/30 09:38:49;;;;;;;64.33;9.97;;;;;;;5.35;82.49;99842.59;5044556;28;20420;-88
2023/01/30 09:41:41;;;;;;;16.92;5.30;;;;;;;5.57;85.03;99831.28;5044325;28;20249;-89
2023/01/30 09:44:44;;;;;;;18.80;6.68;;;;;;;5.49;82.87;99824.31;5044480;28;20037;-87
2023/01/30 09:47:11;;;;;;;18.75;6.05;;;;;;;5.46;83.56;99814.78;5044548;28;20398;-87
2023/01/30 09:50:01;;;;;;;12.73;4.65;;;;;;;5.37;83.55;99838.59;5041730;28;20140;-88
2023/01/30 09:52:53;;;;;;;14.07;4.07;;;;;;;5.47;83.45;99843.47;5043676;28;20457;-86
2023/01/30 09:55:25;;;;;;;12.45;4.15;;;;;;;5.75;83.31;99856.63;5028006;28;20051;-84
2023/01/30 09:57:51;;;;;;;23.50;6.47;;;;;;;5.74;82.94;99847.69;5044118;28;20098;-87
2023/01/30 10:00:32;;;;;;;17.25;3.88;;;;;;;5.78;81.97;99853.44;5043443;28;20051;-83
2023/01/30 10:03:04;;;;;;;13.73;3.47;;;;;;;5.59;82.31;99845.41;5044139;28;20037;-83
2023/01/30 10:05:39;;;;;;;16.60;5.03;;;;;;;5.53;83.88;99862.53;5044200;28;20033;-83
2023/01/30 10:08:10;;;;;;;16.48;4.38;;;;;;;5.58;83.36;99865.38;5043534;28;20322;-81
2023/01/30 10:10:41;;;;;;;23.48;5.38;;;;;;;5.70;83.66;99879.78;5044100;28;20227;-83
2023/01/30 10:13:25;;;;;;;13.43;5.03;;;;;;;5.78;83.11;99864.28;5044372;28;20490;-87
2023/01/30 10:15:59;;;;;;;11.23;4.03;;;;;;;5.78;81.90;99869.69;5044510;28;20052;-87
2023/01/30 10:18:35;;;;;;;18.73;5.47;;;;;;;5.73;81.87;99868.47;5026105;28;20418;-89
2023/01/30 10:21:11;;;;;;;10.80;3.58;;;;;;;5.83;81.89;99884.19;5043976;28;20052;-87
2023/01/30 10:23:56;;;;;;;16.88;5.07;;;;;;;5.80;81.54;99871.09;5042917;28;20040;-78
2023/01/30 10:26:25;;;;;;;13.10;4.53;;;;;;;5.83;80.53;99877.94;5042648;28;20406;-86
2023/01/30 10:29:11;;;;;;;13.43;4.20;;;;;;;5.96;81.54;99877.75;5043847;28;20561;-83
2023/01/30 10:31:46;;;;;;;12.50;4.53;;;;;;;5.94;79.90;99870.91;5043905;28;20025;-85
2023/01/30 10:34:17;;;;;;;11.85;4.00;;;;;;;6.04;79.95;99867.66;5043472;28;20063;-79
2023/01/30 10:36:48;;;;;;;15.80;4.65;;;;;;;6.02;79.46;99864.34;5040433;28;20029;-78
2023/01/30 10:39:29;;;;;;;14.48;3.28;;;;;;;6.12;79.71;99867.31;5041751;28;20486;-78
2023/01/30 10:42:05;;;;;;;20.40;4.60;;;;;;;6.12;78.96;99863.81;5042502;28;20032;-78
2023/01/30 10:44:31;;;;;;;16.92;4.68;;;;;;;6.04;79.00;99876.59;5042213;28;20036;-78
2023/01/30 10:46:59;;;;;;;10.23;2.70;;;;;;;6.02;79.28;99869.78;5042054;28;20033;-79
2023/01/30 10:49:44;;;;;;;13.82;4.22;;;;;;;6.06;79.12;99862.88;5041299;28;20516;-79
2023/01/30 10:52:30;;;;;;;11.30;4.18;;;;;;;6.07;78.93;99862.63;5042337;28;20068;-79
2023/01/30 10:55:18;;;;;;;6.93;2.78;;;;;;;6.00;77.12;99855.66;5042192;28;20043;-78
2023/01/30 10:57:57;;;;;;;14.70;4.38;;;;;;;5.83;76.65;99872.53;5041864;28;20037;-79
2023/01/30 11:00:29;;;;;;;16.77;3.58;;;;;;;5.91;78.26;99869.50;5041938;28;20049;-78
2023/01/30 11:03:03;;;;;;;12.02;3.35;;;;;;;5.92;76.74;99852.19;5041871;28;20033;-80
2023/01/30 11:05:43;;;;;;;22.92;3.63;;;;;;;5.69;76.92;99874.59;5042515;28;20048;-79
2023/01/30 11:08:30;;;;;;;13.07;3.17;;;;;;;5.84;76.99;99863.34;5041437;28;20040;-80
2023/01/30 11:10:56;;;;;;;20.92;4.78;;;;;;;5.82;76.54;99876.28;5041722;28;20509;-83
2023/01/30 11:13:30;;;;;;;10.57;3.55;;;;;;;6.02;77.29;99864.34;5044386;28;20044;-79
2023/01/30 11:16:08;;;;;;;15.65;3.45;;;;;;;5.81;76.00;99880.06;5043441;28;20037;-80
2023/01/30 11:18:44;;;;;;;9.43;3.70;;;;;;;5.91;76.66;99858.69;5045759;28;20080;-81
2023/01/30 11:21:19;;;;;;;16.77;3.47;;;;;;;6.00;76.42;99867.28;5045755;28;20478;-81
2023/01/30 11:23:44;;;;;;;12.43;4.05;;;;;;;6.08;76.19;99866.16;5045588;28;20033;-80
2023/01/30 11:26:20;;;;;;;11.55;3.17;;;;;;;6.02;75.92;99870.56;5045219;28;20033;-80
2023/01/30 11:28:45;;;;;;;14.00;2.50;;;;;;;6.05;76.41;99855.75;5045690;28;20033;-81
2023/01/30 11:31:19;;;;;;;15.82;4.93;;;;;;;6.07;76.23;99875.34;5046188;28;20044;-80
2023/01/30 11:33:59;;;;;;;14.95;3.00;;;;;;;6.15;76.36;99891.25;5045776;28;20040;-81
2023/01/30 11:36:28;;;;;;;25.35;5.25;;;;;;;6.10;76.76;99883.00;5045920;28;20520;-81
2023/01/30 11:38:59;;;;;;;16.98;4.93;;;;;;;6.11;76.25;99873.81;5046025;28;20028;-81